Time;durP1;ratioP1;P1;durP2;ratioP2;P2;SDS_P1;SDS_P2;PMS_P1;PMS_P2;Temp;Humidity;BMP_temperature;BMP_pressure;BME280_temperature;BME280_humidity;BME280_pressure;Samples;Min_cycle;Max_cycle;Signal;HPM_P1;HPM_P2
2023/04/12 04:02:07;;;;;;;6.70;3.90;;;;;;;4.30;100.00;99786.06;6181170;27;20071;-87
2023/04/12 04:05:12;;;;;;;5.00;4.18;;;;;;;4.37;100.00;99783.62;5314885;33;34610;-86
2023/04/12 04:08:16;;;;;;;7.37;4.45;;;;;;;4.44;100.00;99779.34;5287364;33;35030;-86
2023/04/12 04:11:19;;;;;;;5.12;4.30;;;;;;;4.49;100.00;99777.06;5284030;33;33813;-85
2023/04/12 04:14:23;;;;;;;5.90;4.25;;;;;;;4.44;100.00;99787.34;5294869;33;33812;-85
2023/04/12 04:17:26;;;;;;;4.57;3.78;;;;;;;4.53;100.00;99789.09;5282689;33;34623;-85
2023/04/12 04:20:30;;;;;;;5.30;4.45;;;;;;;4.65;100.00;99787.87;5308080;33;34017;-86
2023/04/12 04:23:44;;;;;;;5.90;4.30;;;;;;;4.58;100.00;99781.47;5308732;33;33957;-86
2023/04/12 04:26:49;;;;;;;6.07;4.15;;;;;;;4.60;100.00;99786.66;5290641;33;33966;-86
2023/04/12 04:29:58;;;;;;;4.72;3.53;;;;;;;4.57;100.00;99789.63;5310461;33;35246;-86
2023/04/12 04:33:01;;;;;;;5.00;3.83;;;;;;;4.59;100.00;99785.81;5298275;33;34009;-85
2023/04/12 04:36:08;;;;;;;6.90;3.67;;;;;;;4.66;100.00;99786.88;5300444;33;35119;-85
2023/04/12 04:39:11;;;;;;;4.75;3.87;;;;;;;4.84;100.00;99786.00;5308040;33;34820;-85
2023/04/12 04:42:14;;;;;;;6.93;3.90;;;;;;;4.94;100.00;99781.41;5283963;33;33931;-86
2023/04/12 04:45:20;;;;;;;6.15;3.78;;;;;;;5.01;100.00;99790.47;5296198;33;34411;-86
2023/04/12 04:48:24;;;;;;;4.00;3.20;;;;;;;5.11;100.00;99780.50;5297031;33;35015;-86
2023/04/12 04:51:26;;;;;;;4.55;3.97;;;;;;;5.22;100.00;99790.09;5297731;33;35596;-85
2023/04/12 04:54:31;;;;;;;6.30;4.03;;;;;;;5.34;100.00;99788.81;5284050;33;34785;-86
2023/04/12 04:57:35;;;;;;;5.28;3.58;;;;;;;5.46;100.00;99786.72;5287456;33;34314;-85
2023/04/12 05:00:38;;;;;;;4.43;3.22;;;;;;;5.62;100.00;99788.66;5313628;33;34027;-85
2023/04/12 05:03:43;;;;;;;6.45;4.00;;;;;;;5.77;100.00;99794.22;5283186;33;33930;-85
2023/04/12 05:06:47;;;;;;;5.32;3.53;;;;;;;5.93;100.00;99794.28;5284236;33;34507;-85
2023/04/12 05:09:50;;;;;;;4.62;3.75;;;;;;;6.09;100.00;99799.69;5283597;33;34175;-85
2023/04/12 05:12:54;;;;;;;3.87;3.58;;;;;;;6.26;100.00;99794.34;5295339;33;35060;-87
2023/04/12 05:15:57;;;;;;;4.12;3.53;;;;;;;6.34;100.00;99794.38;5295420;33;34757;-85
2023/04/12 05:19:01;;;;;;;4.50;3.20;;;;;;;6.48;100.00;99787.56;5278368;33;33557;-86
2023/04/12 05:22:04;;;;;;;3.90;3.33;;;;;;;6.59;100.00;99779.19;5284052;33;33900;-87
2023/04/12 05:25:07;;;;;;;4.68;3.08;;;;;;;6.74;100.00;99784.72;5279121;33;33822;-86
2023/04/12 05:28:13;;;;;;;3.67;3.33;;;;;;;6.92;100.00;99776.50;5278017;33;34152;-86
2023/04/12 05:31:17;;;;;;;7.30;3.60;;;;;;;6.96;99.76;99785.84;5280188;33;33928;-86
2023/04/12 05:34:20;;;;;;;6.18;3.00;;;;;;;7.01;99.09;99768.28;5314777;33;33803;-86
2023/04/12 05:37:25;;;;;;;5.68;3.45;;;;;;;7.14;98.82;99761.59;5301770;33;34857;-86
2023/04/12 05:40:30;;;;;;;8.90;3.37;;;;;;;7.28;99.09;99766.22;5297298;33;33708;-86
2023/04/12 05:43:36;;;;;;;4.47;3.40;;;;;;;7.41;97.52;99752.31;5295657;33;35418;-88
2023/04/12 05:46:39;;;;;;;7.35;3.25;;;;;;;7.45;97.06;99762.50;5269434;33;35403;-90
2023/04/12 05:49:42;;;;;;;4.90;3.00;;;;;;;7.50;96.79;99756.63;5282441;33;34269;-90
2023/04/12 05:52:49;;;;;;;6.87;3.35;;;;;;;7.62;96.56;99765.94;5304718;33;33431;-87
2023/04/12 05:55:54;;;;;;;5.03;3.53;;;;;;;7.58;96.29;99770.00;5308278;33;35011;-86
2023/04/12 05:58:58;;;;;;;6.53;3.70;;;;;;;7.65;96.15;99767.44;5282271;33;33437;-86
2023/04/12 06:02:01;;;;;;;4.75;3.62;;;;;;;7.86;96.07;99774.88;5275527;33;33820;-86
2023/04/12 06:05:05;;;;;;;5.30;3.60;;;;;;;7.82;96.18;99781.63;5298094;33;34058;-86
2023/04/12 06:08:13;;;;;;;8.90;3.28;;;;;;;7.81;96.65;99788.81;5289713;33;34784;-86
2023/04/12 06:11:16;;;;;;;5.37;3.80;;;;;;;7.94;95.61;99781.03;5274560;33;34011;-86
2023/04/12 06:14:19;;;;;;;4.40;3.70;;;;;;;7.80;95.29;99797.84;5303553;33;33514;-86
2023/04/12 06:17:22;;;;;;;6.53;3.45;;;;;;;7.69;96.46;99798.22;5301725;33;33889;-87
2023/04/12 06:20:26;;;;;;;4.78;3.72;;;;;;;7.73;97.22;99795.03;5292373;33;34111;-86
2023/04/12 06:23:30;;;;;;;7.57;3.70;;;;;;;7.91;96.44;99796.63;5314536;33;34540;-86
2023/04/12 06:26:36;;;;;;;6.87;3.60;;;;;;;7.95;95.53;99803.31;5304256;33;35033;-87
2023/04/12 06:29:42;;;;;;;4.65;3.33;;;;;;;8.14;94.36;99800.19;5308278;33;35282;-87
2023/04/12 06:32:45;;;;;;;7.43;3.20;;;;;;;8.25;93.97;99806.16;5302625;33;33597;-87
2023/04/12 06:35:49;;;;;;;5.62;3.53;;;;;;;8.29;93.76;99802.97;5292262;33;34214;-87
2023/04/12 06:38:53;;;;;;;4.55;3.72;;;;;;;8.23;93.18;99811.72;5289350;33;34362;-87
2023/04/12 06:41:58;;;;;;;7.47;3.80;;;;;;;8.35;92.56;99804.09;5288489;33;34059;-87
2023/04/12 06:45:02;;;;;;;7.87;4.05;;;;;;;8.48;92.91;99815.12;5285928;33;32566;-87
2023/04/12 06:48:06;;;;;;;5.53;3.70;;;;;;;8.53;92.25;99811.88;5287236;33;33671;-87
2023/04/12 06:51:10;;;;;;;6.28;3.53;;;;;;;8.85;90.54;99805.44;5285834;33;34855;-87
2023/04/12 06:54:13;;;;;;;6.78;3.80;;;;;;;8.59;90.40;99803.94;5313363;33;34403;-87
2023/04/12 06:57:16;;;;;;;7.55;4.20;;;;;;;8.71;90.02;99806.22;5318621;33;33602;-86
2023/04/12 07:00:20;;;;;;;10.15;3.87;;;;;;;8.71;89.13;99807.06;5310867;33;33729;-87
2023/04/12 07:03:23;;;;;;;4.97;3.78;;;;;;;8.72;89.90;99811.41;5299129;33;33896;-87
2023/04/12 07:06:27;;;;;;;5.37;3.50;;;;;;;8.77;88.81;99808.19;5275140;33;33643;-87
2023/04/12 07:09:31;;;;;;;6.70;3.95;;;;;;;8.92;87.50;99808.22;5311744;33;33980;-86
2023/04/12 07:12:34;;;;;;;5.37;3.70;;;;;;;8.92;88.68;99802.84;5309781;33;34133;-87
2023/04/12 07:15:37;;;;;;;7.22;4.10;;;;;;;9.03;87.21;99805.09;5311350;33;35155;-87
2023/04/12 07:18:40;;;;;;;5.50;3.70;;;;;;;9.15;86.22;99803.66;5298679;33;33411;-87
2023/04/12 07:21:43;;;;;;;6.93;3.90;;;;;;;9.14;85.93;99811.91;5284211;33;34139;-87
2023/04/12 07:24:47;;;;;;;5.87;3.90;;;;;;;9.27;85.68;99807.56;5295303;33;34119;-88
2023/04/12 07:27:51;;;;;;;6.03;3.95;;;;;;;9.48;85.64;99800.66;5299594;33;34175;-87
2023/04/12 07:30:54;;;;;;;4.43;3.50;;;;;;;9.68;83.98;99792.84;5294271;33;33982;-87
2023/04/12 07:33:58;;;;;;;5.45;3.50;;;;;;;9.72;83.89;99802.22;5281139;33;34552;-87
2023/04/12 07:37:01;;;;;;;3.70;3.40;;;;;;;9.85;82.27;99797.00;5305650;33;33825;-87
2023/04/12 07:40:19;;;;;;;5.60;3.40;;;;;;;9.91;81.78;99798.09;5299121;33;33954;-87
2023/04/12 07:43:22;;;;;;;4.87;3.55;;;;;;;10.18;80.69;99810.03;5300014;33;33359;-88
2023/04/12 07:46:25;;;;;;;6.97;4.10;;;;;;;10.02;82.52;99805.69;5296596;33;35057;-87
2023/04/12 07:49:30;;;;;;;4.30;3.67;;;;;;;9.87;83.21;99796.81;5291276;33;35317;-87
2023/04/12 07:52:33;;;;;;;6.20;4.00;;;;;;;9.95;83.18;99797.53;5303454;33;33498;-88
2023/04/12 07:55:36;;;;;;;5.25;3.80;;;;;;;9.99;82.40;99803.37;5318526;33;35436;-87
2023/04/12 07:58:39;;;;;;;5.35;3.72;;;;;;;9.95;83.34;99796.72;5287592;33;34034;-86
2023/04/12 08:01:43;;;;;;;11.27;3.85;;;;;;;10.23;81.61;99796.81;5295388;33;33188;-88
2023/04/12 08:04:46;;;;;;;4.57;3.80;;;;;;;10.30;80.15;99811.22;5295338;33;35342;-88
2023/04/12 08:07:49;;;;;;;5.03;3.60;;;;;;;10.48;80.52;99804.59;5300135;33;34183;-87
2023/04/12 08:10:52;;;;;;;5.93;3.45;;;;;;;10.82;79.71;99804.72;5288742;33;34913;-88
2023/04/12 08:13:56;;;;;;;5.87;3.40;;;;;;;10.73;77.79;99799.62;5287927;33;35305;-87
2023/04/12 08:17:00;;;;;;;5.57;3.70;;;;;;;10.88;76.74;99800.38;5294540;33;34217;-87
2023/04/12 08:20:03;;;;;;;3.90;3.25;;;;;;;10.81;75.34;99812.97;5292721;33;33961;-86
2023/04/12 08:23:07;;;;;;;5.50;3.40;;;;;;;10.65;74.87;99814.91;5296776;33;34296;-86
2023/04/12 08:26:10;;;;;;;4.45;3.40;;;;;;;10.76;74.84;99810.03;5292255;33;33895;-86
2023/04/12 08:29:13;;;;;;;5.30;3.42;;;;;;;10.85;76.14;99807.03;5304079;33;34334;-87
2023/04/12 08:32:15;;;;;;;3.60;3.20;;;;;;;11.09;74.94;99805.75;5285981;33;34140;-87
2023/04/12 08:35:19;;;;;;;3.90;3.10;;;;;;;11.20;73.08;99815.16;5290440;33;34962;-87
2023/04/12 08:38:21;;;;;;;3.87;3.30;;;;;;;11.37;72.24;99813.00;5315643;33;35369;-87
2023/04/12 08:41:40;;;;;;;4.85;3.28;;;;;;;11.53;72.20;99804.63;5281705;33;34026;-87
2023/04/12 08:44:43;;;;;;;5.15;3.20;;;;;;;11.81;71.31;99795.63;5282848;33;33652;-87
2023/04/12 08:47:46;;;;;;;3.87;3.15;;;;;;;11.84;69.80;99808.72;5311476;33;34263;-87
2023/04/12 08:50:51;;;;;;;6.40;3.03;;;;;;;11.91;69.00;99806.94;5285601;33;34396;-87
2023/04/12 08:53:54;;;;;;;3.22;2.65;;;;;;;12.01;67.04;99798.44;5301518;33;34069;-87
2023/04/12 08:57:00;;;;;;;5.43;2.75;;;;;;;12.06;65.74;99800.56;5283362;33;34882;-87
2023/04/12 09:00:07;;;;;;;3.25;2.45;;;;;;;12.17;65.38;99791.88;5285319;33;33780;-87
2023/04/12 09:03:10;;;;;;;3.58;2.80;;;;;;;12.37;64.75;99798.19;5275341;33;33846;-88
2023/04/12 09:06:13;;;;;;;5.25;2.92;;;;;;;12.44;64.87;99790.09;5293749;33;35439;-87
2023/04/12 09:09:16;;;;;;;4.55;3.37;;;;;;;12.25;64.56;99784.44;5275134;33;34291;-87
2023/04/12 09:12:23;;;;;;;4.53;3.03;;;;;;;12.40;65.23;99784.28;5299427;33;34005;-86
2023/04/12 09:15:26;;;;;;;2.80;2.60;;;;;;;12.68;62.90;99780.56;5298954;33;33305;-87
2023/04/12 09:18:29;;;;;;;3.12;2.40;;;;;;;12.75;62.71;99784.09;5300341;33;33702;-88
2023/04/12 09:21:34;;;;;;;3.17;2.70;;;;;;;12.59;62.67;99782.63;5276404;33;35520;-88
2023/04/12 09:24:52;;;;;;;3.35;3.03;;;;;;;12.57;62.50;99773.91;5276447;33;35274;-87
2023/04/12 09:27:56;;;;;;;5.93;3.03;;;;;;;12.64;63.60;99763.94;5306912;33;35521;-88
2023/04/12 09:30:59;;;;;;;2.97;2.60;;;;;;;12.73;63.21;99766.44;5287940;33;33643;-87
2023/04/12 09:34:08;;;;;;;3.70;2.45;;;;;;;12.76;61.51;99768.75;5299932;33;34066;-87
2023/04/12 09:37:15;;;;;;;4.00;2.78;;;;;;;13.21;61.49;99758.94;5289270;33;34070;-88
2023/04/12 09:40:24;;;;;;;3.65;2.70;;;;;;;13.50;60.89;99752.25;5309237;33;34320;-87
2023/04/12 09:43:37;;;;;;;3.05;2.72;;;;;;;13.97;58.12;99760.19;5300267;33;35397;-88
2023/04/12 09:46:51;;;;;;;3.22;2.40;;;;;;;13.76;57.29;99743.22;5286971;33;33988;-87
2023/04/12 09:49:55;;;;;;;2.92;2.70;;;;;;;13.87;58.15;99747.13;5298486;33;34805;-87
2023/04/12 09:53:00;;;;;;;3.78;2.87;;;;;;;13.78;55.87;99738.44;5300008;33;34070;-87
2023/04/12 09:56:07;;;;;;;2.75;2.53;;;;;;;13.50;57.86;99736.03;5293148;33;34323;-87
2023/04/12 09:59:12;;;;;;;3.67;2.70;;;;;;;13.56;57.05;99734.34;5293528;33;268959;-87
2023/04/12 10:02:27;;;;;;;2.65;2.45;;;;;;;13.71;55.68;99734.91;5302388;33;33238;-87
2023/04/12 10:05:30;;;;;;;4.28;2.40;;;;;;;13.83;54.40;99729.66;5303922;33;34103;-87
2023/04/12 10:08:36;;;;;;;3.08;2.72;;;;;;;14.13;53.61;99723.66;5302340;33;34163;-87
2023/04/12 10:11:41;;;;;;;5.50;2.80;;;;;;;14.08;52.76;99721.63;5304914;33;33928;-87
2023/04/12 10:14:45;;;;;;;3.80;2.90;;;;;;;14.05;54.76;99733.72;5311569;33;34269;-87
2023/04/12 10:17:51;;;;;;;5.50;3.50;;;;;;;14.05;54.42;99727.47;5294733;33;33947;-87
2023/04/12 10:20:55;;;;;;;3.37;2.62;;;;;;;14.15;53.44;99725.13;5313832;33;35449;-87
2023/04/12 10:23:59;;;;;;;2.95;2.67;;;;;;;14.37;53.20;99716.66;5307000;33;33267;-86
2023/04/12 10:27:03;;;;;;;3.55;2.92;;;;;;;14.37;52.19;99736.44;5307432;33;34022;-86
2023/04/12 10:30:24;;;;;;;3.65;2.87;;;;;;;14.55;49.98;99724.06;5319039;33;34228;-86
2023/04/12 10:33:30;;;;;;;4.05;3.15;;;;;;;14.51;51.35;99729.06;5300835;33;33740;-87
2023/04/12 10:37:00;;;;;;;4.50;2.95;;;;;;;14.89;50.79;99726.28;5304860;33;33872;-90
2023/04/12 10:40:03;;;;;;;4.03;2.92;;;;;;;15.36;47.25;99725.84;5302316;33;34183;-87
2023/04/12 10:43:21;;;;;;;4.80;2.90;;;;;;;15.45;47.10;99718.25;5292780;33;34147;-87
2023/04/12 10:46:39;;;;;;;4.10;2.97;;;;;;;15.51;46.80;99710.00;5302744;33;34390;-87
2023/04/12 10:50:19;;;;;;;3.47;2.58;;;;;;;15.24;42.94;99706.78;5318756;33;33954;-87
2023/04/12 10:53:23;;;;;;;3.62;2.62;;;;;;;15.47;43.48;99713.41;5314578;33;34150;-87
2023/04/12 10:56:33;;;;;;;4.82;2.70;;;;;;;15.48;43.78;99706.94;5297531;33;34526;-87
2023/04/12 10:59:56;;;;;;;4.22;2.40;;;;;;;15.84;43.29;99695.22;5304369;33;35414;-86
2023/04/12 11:03:08;;;;;;;2.62;2.22;;;;;;;15.97;41.62;99703.22;5308200;33;32726;-86
2023/04/12 11:06:11;;;;;;;3.12;2.72;;;;;;;16.46;39.25;99695.78;5296258;33;33820;-87
2023/04/12 11:09:35;;;;;;;2.80;2.47;;;;;;;16.45;39.89;99696.84;5313507;33;34630;-86
2023/04/12 11:12:38;;;;;;;4.50;2.47;;;;;;;16.83;39.89;99698.38;5308520;33;33937;-87
2023/04/12 11:15:43;;;;;;;4.60;2.87;;;;;;;18.02;39.53;99700.69;5296301;33;34520;-87
2023/04/12 11:18:46;;;;;;;3.55;2.72;;;;;;;18.07;36.61;99698.03;5287022;33;33819;-86
2023/04/12 11:21:50;;;;;;;3.33;2.60;;;;;;;18.08;37.15;99688.81;5298016;33;34131;-86
2023/04/12 11:28:46;;;;;;;3.25;2.50;;;;;;;18.79;35.51;99686.50;5313230;33;34001;-86
2023/04/12 11:31:50;;;;;;;2.53;2.22;;;;;;;19.26;34.23;99688.00;5298948;33;33945;-87
2023/04/12 11:34:55;;;;;;;3.05;2.45;;;;;;;19.78;31.77;99679.41;5305199;33;35031;-87
2023/04/12 11:37:59;;;;;;;2.42;2.20;;;;;;;20.36;30.64;99672.38;5305479;33;34662;-87
2023/04/12 11:41:02;;;;;;;3.00;2.22;;;;;;;20.00;31.31;99673.09;5292031;33;34631;-87
2023/04/12 11:44:06;;;;;;;3.80;2.22;;;;;;;19.98;32.18;99665.16;5322947;33;34441;-87
2023/04/12 11:47:15;;;;;;;1.62;1.52;;;;;;;20.48;30.07;99657.69;5304036;33;35119;-87
2023/04/12 11:50:29;;;;;;;3.35;1.90;;;;;;;20.92;29.38;99661.06;5324883;33;35315;-87
2023/04/12 11:53:33;;;;;;;3.47;2.03;;;;;;;22.37;28.25;99655.88;5295106;33;35402;-87
2023/04/12 11:56:37;;;;;;;4.40;2.15;;;;;;;22.81;26.41;99658.06;5288691;33;34276;-86
2023/04/12 11:59:43;;;;;;;1.83;1.40;;;;;;;24.61;25.45;99645.19;5308451;33;33900;-86
2023/04/12 12:02:46;;;;;;;1.70;1.55;;;;;;;25.37;23.13;99649.09;5309170;33;34044;-86
2023/04/12 12:06:09;;;;;;;2.97;1.75;;;;;;;26.04;22.70;99635.28;5288369;33;34420;-89
2023/04/12 12:09:12;;;;;;;2.60;1.80;;;;;;;26.77;22.17;99628.31;5279870;33;33026;-90
2023/04/12 12:12:17;;;;;;;2.05;1.40;;;;;;;26.59;22.87;99626.41;5303218;33;35407;-91
2023/04/12 12:15:20;;;;;;;5.05;1.60;;;;;;;27.48;21.37;99623.34;5271722;33;34651;-86
2023/04/12 12:18:27;;;;;;;2.55;1.70;;;;;;;27.71;20.67;99615.94;5286377;33;34082;-86
2023/04/12 12:21:30;;;;;;;1.65;1.40;;;;;;;28.95;19.96;99614.59;5265153;33;33637;-86
2023/04/12 12:24:35;;;;;;;5.03;1.67;;;;;;;28.17;20.37;99608.53;5263670;33;34289;-85
2023/04/12 12:27:47;;;;;;;1.62;1.52;;;;;;;27.72;20.80;99609.28;5274755;33;35024;-86
2023/04/12 12:30:56;;;;;;;3.70;1.70;;;;;;;27.64;20.33;99610.00;5271422;33;33906;-86
2023/04/12 12:34:00;;;;;;;2.78;1.70;;;;;;;28.33;20.14;99606.22;5271110;33;33290;-85
2023/04/12 12:37:09;;;;;;;2.05;1.87;;;;;;;26.63;20.97;99606.19;5282044;33;34223;-85
2023/04/12 12:40:12;;;;;;;2.87;1.65;;;;;;;27.21;20.30;99599.31;5288124;33;32859;-86
2023/04/12 12:43:19;;;;;;;2.20;1.50;;;;;;;27.43;20.39;99597.75;5301777;33;34039;-86
2023/04/12 12:46:23;;;;;;;3.05;1.83;;;;;;;28.25;21.19;99591.19;5306684;33;35087;-87
2023/04/12 12:49:31;;;;;;;1.67;1.50;;;;;;;29.40;18.91;99586.75;5306369;33;35327;-87
2023/04/12 12:52:33;;;;;;;2.83;1.65;;;;;;;27.93;19.95;99576.44;5279929;33;35377;-87
2023/04/12 12:55:38;;;;;;;2.10;1.90;;;;;;;29.92;19.32;99592.38;5279463;33;35479;-86
2023/04/12 12:58:41;;;;;;;2.58;1.40;;;;;;;31.24;17.48;99586.22;5306650;33;34619;-87
2023/04/12 13:01:44;;;;;;;2.17;1.40;;;;;;;29.54;18.38;99595.75;5293315;33;34675;-87
2023/04/12 13:04:47;;;;;;;2.85;1.83;;;;;;;29.78;18.62;99588.97;5288043;33;32553;-87
2023/04/12 13:07:50;;;;;;;2.03;1.60;;;;;;;30.19;18.36;99582.91;5273335;33;33892;-85
2023/04/12 13:10:54;;;;;;;3.08;1.77;;;;;;;30.59;17.90;99573.53;5275937;33;34782;-86
2023/04/12 13:13:57;;;;;;;3.65;1.80;;;;;;;30.85;17.81;99570.69;5260511;33;34585;-87
2023/04/12 13:17:00;;;;;;;3.12;1.42;;;;;;;31.25;17.34;99573.13;5259282;33;32719;-87
2023/04/12 13:20:03;;;;;;;2.20;1.40;;;;;;;30.79;17.00;99563.69;5267653;33;34067;-87
2023/04/12 13:23:06;;;;;;;3.33;1.58;;;;;;;30.03;17.58;99568.69;5284283;33;34300;-87
2023/04/12 13:26:09;;;;;;;1.62;1.20;;;;;;;30.13;17.37;99569.50;5289757;33;33528;-86
2023/04/12 13:29:12;;;;;;;2.28;1.60;;;;;;;29.44;17.09;99564.72;5263516;33;34804;-86
2023/04/12 13:32:16;;;;;;;3.20;1.70;;;;;;;30.01;17.39;99571.00;5264078;33;33462;-86
2023/04/12 13:35:19;;;;;;;2.80;1.52;;;;;;;29.20;17.81;99559.63;5300609;33;32483;-87
2023/04/12 13:38:22;;;;;;;2.47;1.62;;;;;;;29.79;16.46;99554.50;5264311;33;34919;-86
2023/04/12 13:41:25;;;;;;;4.28;1.30;;;;;;;28.18;19.67;99549.31;5269579;33;33385;-86
2023/04/12 13:44:28;;;;;;;2.05;1.45;;;;;;;27.84;18.33;99549.84;5274281;33;34573;-86
2023/04/12 13:47:32;;;;;;;3.90;1.37;;;;;;;28.08;18.62;99553.16;5275249;33;33939;-86
2023/04/12 13:50:35;;;;;;;1.90;1.50;;;;;;;30.39;16.41;99547.25;5266491;33;33853;-86
2023/04/12 13:53:38;;;;;;;1.90;1.37;;;;;;;29.41;16.82;99545.97;5278163;33;35370;-85
2023/04/12 13:56:41;;;;;;;3.03;1.45;;;;;;;30.42;16.73;99544.66;5265864;33;33538;-86
2023/04/12 13:59:44;;;;;;;2.78;1.45;;;;;;;30.54;16.70;99543.13;5291237;33;34130;-87
2023/04/12 14:02:48;;;;;;;1.77;1.42;;;;;;;30.10;16.65;99548.78;5289826;33;33913;-89
2023/04/12 14:05:51;;;;;;;3.40;1.12;;;;;;;29.09;16.88;99540.50;5261982;33;34418;-86
2023/04/12 14:08:54;;;;;;;2.67;1.40;;;;;;;30.89;16.01;99541.06;5276186;33;33820;-86
2023/04/12 14:12:00;;;;;;;1.87;1.30;;;;;;;29.62;16.99;99541.44;5263634;33;33834;-86
2023/04/12 14:15:04;;;;;;;3.22;1.45;;;;;;;29.53;17.97;99530.31;5266117;33;34063;-86
2023/04/12 14:18:07;;;;;;;2.45;1.30;;;;;;;29.08;18.06;99536.09;5264279;33;34631;-86
2023/04/12 14:21:10;;;;;;;4.37;1.50;;;;;;;27.58;18.29;99534.66;5279178;33;34921;-85
2023/04/12 14:24:15;;;;;;;1.67;1.20;;;;;;;27.16;18.39;99533.09;5278238;33;33746;-86
2023/04/12 14:27:17;;;;;;;1.85;1.10;;;;;;;26.73;17.93;99527.03;5278700;33;33765;-86
2023/04/12 14:30:20;;;;;;;1.80;1.02;;;;;;;25.09;19.65;99522.09;5278160;33;33850;-86
2023/04/12 14:33:30;;;;;;;3.62;1.40;;;;;;;25.04;19.05;99524.12;5268316;33;34127;-86
2023/04/12 14:36:33;;;;;;;2.45;1.20;;;;;;;24.41;20.56;99530.56;5291027;33;33587;-86
2023/04/12 14:39:36;;;;;;;2.90;1.48;;;;;;;24.50;21.40;99534.34;5291115;33;33992;-86
2023/04/12 14:42:40;;;;;;;2.08;1.30;;;;;;;24.26;22.67;99522.47;5278853;33;35026;-86
2023/04/12 14:45:42;;;;;;;2.90;1.20;;;;;;;23.97;20.62;99529.56;5278284;33;33862;-86
2023/04/12 14:48:45;;;;;;;2.30;1.20;;;;;;;24.31;20.12;99522.44;5290146;33;33996;-86
2023/04/12 14:51:48;;;;;;;2.40;1.00;;;;;;;24.67;19.51;99526.47;5275660;33;34017;-88
2023/04/12 14:54:51;;;;;;;2.45;1.25;;;;;;;24.26;19.74;99522.47;5276725;33;33520;-87
2023/04/12 14:57:54;;;;;;;1.75;1.35;;;;;;;23.33;21.51;99521.47;5271348;33;35060;-88
2023/04/12 15:00:59;;;;;;;2.03;1.37;;;;;;;21.17;22.61;99520.78;5260661;33;33434;-87
2023/04/12 15:04:03;;;;;;;2.28;1.50;;;;;;;19.37;24.31;99523.28;5276837;33;34786;-87
2023/04/12 15:07:07;;;;;;;1.50;1.40;;;;;;;18.29;25.15;99525.69;5276790;33;33688;-87
2023/04/12 15:10:13;;;;;;;3.85;1.55;;;;;;;17.33;26.86;99531.91;5281860;33;34050;-87
2023/04/12 15:13:16;;;;;;;3.03;1.42;;;;;;;17.11;26.57;99531.75;5287843;33;35407;-87
2023/04/12 15:16:19;;;;;;;1.70;1.60;;;;;;;16.60;27.60;99524.38;5278112;33;34752;-87
2023/04/12 15:19:22;;;;;;;2.03;1.50;;;;;;;16.27;28.31;99525.81;5277838;33;33951;-87
2023/04/12 15:22:25;;;;;;;4.37;1.60;;;;;;;16.08;28.98;99534.06;5283834;33;34572;-87
2023/04/12 15:25:29;;;;;;;2.65;1.83;;;;;;;15.78;30.10;99527.87;5267544;33;35234;-87
2023/04/12 15:28:32;;;;;;;2.55;1.12;;;;;;;15.63;30.45;99523.69;5262720;33;34750;-87
2023/04/12 15:31:35;;;;;;;1.70;1.60;;;;;;;15.50;30.77;99526.59;5272610;33;33921;-87
2023/04/12 15:34:38;;;;;;;2.22;1.77;;;;;;;15.26;30.86;99522.13;5260600;33;34699;-87
2023/04/12 15:37:41;;;;;;;1.55;1.30;;;;;;;15.23;30.99;99533.44;5261216;33;34850;-87
2023/04/12 15:40:45;;;;;;;2.50;1.40;;;;;;;15.15;30.90;99538.13;5272587;33;33806;-86
2023/04/12 15:43:51;;;;;;;3.12;1.48;;;;;;;14.99;30.58;99535.22;5273311;33;34072;-87
2023/04/12 15:46:54;;;;;;;1.67;1.52;;;;;;;14.82;31.39;99529.56;5274563;33;34555;-87
2023/04/12 15:50:12;;;;;;;2.37;1.35;;;;;;;14.79;30.47;99530.84;5278270;33;35438;-87
2023/04/12 15:53:22;;;;;;;1.55;1.35;;;;;;;14.62;31.28;99529.78;5260936;33;34491;-87
